Time;durP1;ratioP1;P1;durP2;ratioP2;P2;SDS_P1;SDS_P2;PMS_P1;PMS_P2;Temp;Humidity;BMP_temperature;BMP_pressure;BME280_temperature;BME280_humidity;BME280_pressure;Samples;Min_cycle;Max_cycle;Signal;HPM_P1;HPM_P2
2023/03/08 00:02:06;;;;;;;15.15;8.48;;;;;;;;;;5101464;28;20061;-88
2023/03/08 00:04:33;;;;;;;14.55;8.20;;;;;;;;;;5083223;28;20024;-88
2023/03/08 00:06:59;;;;;;;17.83;8.50;;;;;;;;;;5101293;28;20104;-87
2023/03/08 00:09:44;;;;;;;15.55;9.40;;;;;;;;;;5082629;28;20035;-88
2023/03/08 00:12:10;;;;;;;21.40;10.80;;;;;;;;;;5082904;28;20047;-88
2023/03/08 00:14:36;;;;;;;19.70;12.18;;;;;;;;;;5083189;28;20028;-88
2023/03/08 00:17:02;;;;;;;18.40;10.80;;;;;;;;;;5101118;28;20031;-88
2023/03/08 00:19:28;;;;;;;13.25;8.40;;;;;;;;;;5100852;28;20440;-89
2023/03/08 00:21:54;;;;;;;21.77;10.57;;;;;;;;;;5101155;28;20024;-89
2023/03/08 00:27:38;;;;;;;14.85;8.00;;;;;;;;;;5100890;28;20035;-89
2023/03/08 00:30:05;;;;;;;13.48;7.93;;;;;;;;;;5083035;28;20024;-89
2023/03/08 00:32:31;;;;;;;15.05;8.07;;;;;;;;;;5100786;28;20089;-89
2023/03/08 00:34:57;;;;;;;12.27;7.43;;;;;;;;;;5081659;28;20028;-89
2023/03/08 00:37:23;;;;;;;11.07;6.70;;;;;;;;;;5082580;28;20065;-88
2023/03/08 00:42:53;;;;;;;12.02;8.00;;;;;;;;;;5080416;28;20120;-88
2023/03/08 00:45:19;;;;;;;11.65;6.85;;;;;;;;;;5062374;28;20421;-88
2023/03/08 00:47:45;;;;;;;11.85;6.57;;;;;;;;;;5078219;28;20413;-87
2023/03/08 00:50:11;;;;;;;11.95;6.65;;;;;;;;;;5100589;28;20024;-88
2023/03/08 00:52:37;;;;;;;10.77;6.40;;;;;;;;;;5100446;28;20040;-87
2023/03/08 00:58:20;;;;;;;9.45;6.15;;;;;;;;;;5092124;28;20433;-88
2023/03/08 01:00:46;;;;;;;9.27;5.90;;;;;;;;;;5082565;28;20039;-87
2023/03/08 01:03:12;;;;;;;12.13;6.25;;;;;;;;;;5100194;28;20398;-88
2023/03/08 01:05:41;;;;;;;11.05;6.45;;;;;;;;;;5082103;28;20043;-87
2023/03/08 01:08:07;;;;;;;13.02;7.22;;;;;;;;;;5099658;28;20108;-87
2023/03/08 01:13:36;;;;;;;9.35;6.18;;;;;;;;;;5097372;28;20042;-87
2023/03/08 01:16:02;;;;;;;13.48;6.25;;;;;;;;;;5081260;28;20036;-88
2023/03/08 01:18:28;;;;;;;14.50;6.60;;;;;;;;;;5099616;28;20031;-87
2023/03/08 01:20:59;;;;;;;14.07;6.63;;;;;;;;;;5081896;28;20036;-89
2023/03/08 01:23:25;;;;;;;15.80;6.78;;;;;;;;;;5099789;28;20047;-88
2023/03/08 01:26:01;;;;;;;12.73;7.00;;;;;;;;;;5081934;28;20043;-87
2023/03/08 01:28:27;;;;;;;13.35;6.60;;;;;;;;;;5081272;28;20492;-87
2023/03/08 01:30:53;;;;;;;10.38;6.43;;;;;;;;;;5081355;28;20070;-89
2023/03/08 01:33:19;;;;;;;10.80;6.30;;;;;;;;;;5099394;28;20024;-89
2023/03/08 01:35:46;;;;;;;14.60;7.15;;;;;;;;;;5099117;28;20027;-88
2023/03/08 01:38:12;;;;;;;12.63;6.35;;;;;;;;;;5099451;28;20028;-88
2023/03/08 01:43:42;;;;;;;11.80;5.60;;;;;;;;;;5099599;28;20089;-89
2023/03/08 01:46:14;;;;;;;10.05;5.10;;;;;;;;;;5081311;28;20028;-89
2023/03/08 01:48:40;;;;;;;;;;;;;;;;;;5099561;28;20038;-90
2023/03/08 01:51:08;;;;;;;12.90;5.18;;;;;;;;;;5099567;28;19904;-89
2023/03/08 01:53:35;;;;;;;10.70;5.07;;;;;;;;;;5081378;28;20024;-89
2023/03/08 01:56:02;;;;;;;14.88;5.47;;;;;;;;;;5098940;28;20172;-90
2023/03/08 01:58:28;;;;;;;11.75;5.70;;;;;;;;;;5098876;28;20028;-89
2023/03/08 02:00:54;;;;;;;12.77;5.05;;;;;;;;;;5098885;28;20099;-89
2023/03/08 02:03:20;;;;;;;10.80;4.40;;;;;;;;;;5080779;28;20036;-88
2023/03/08 02:05:47;;;;;;;9.68;5.13;;;;;;;;;;5099102;28;20028;-88
2023/03/08 02:08:13;;;;;;;10.38;5.40;;;;;;;;;;5098322;28;20020;-87
2023/03/08 02:10:39;;;;;;;9.55;5.53;;;;;;;;;;5098639;28;20059;-89
2023/03/08 02:13:07;;;;;;;11.00;5.55;;;;;;;;;;5080862;28;20155;-88
2023/03/08 02:15:33;;;;;;;11.45;4.70;;;;;;;;;;5080810;28;20126;-88
2023/03/08 02:17:59;;;;;;;11.85;5.13;;;;;;;;;;5098837;28;20071;-90
2023/03/08 02:20:30;;;;;;;9.15;4.95;;;;;;;;;;5080808;28;20024;-90
2023/03/08 02:23:06;;;;;;;7.38;4.25;;;;;;;;;;5097788;28;20017;-87
2023/03/08 02:28:36;;;;;;;9.73;4.90;;;;;;;;;;5098643;28;20039;-88
2023/03/08 02:31:02;;;;;;;8.73;4.55;;;;;;;;;;5080560;28;20135;-88
2023/03/08 02:33:30;;;;;;;10.68;5.03;;;;;;;;;;5098189;28;20054;-88
2023/03/08 02:35:56;;;;;;;14.32;5.47;;;;;;;;;;5098321;28;20024;-88
2023/03/08 02:38:22;;;;;;;12.88;5.97;;;;;;;;;;5098655;28;20372;-89
2023/03/08 02:40:50;;;;;;;12.23;6.30;;;;;;;;;;5098575;28;20046;-88
2023/03/08 02:43:17;;;;;;;8.23;5.47;;;;;;;;;;5098132;28;20028;-89
2023/03/08 02:45:43;;;;;;;12.77;5.93;;;;;;;;;;5097087;28;20024;-87
2023/03/08 02:48:09;;;;;;;8.45;5.00;;;;;;;;;;5080379;28;20433;-89
2023/03/08 02:50:35;;;;;;;10.40;5.47;;;;;;;;;;5098220;28;20467;-89
2023/03/08 02:53:01;;;;;;;10.65;5.10;;;;;;;;;;5097115;28;20074;-88
2023/03/08 02:55:27;;;;;;;11.50;5.93;;;;;;;;;;5080285;28;20051;-88
2023/03/08 02:57:54;;;;;;;12.27;6.55;;;;;;;;;;5079726;28;20032;-88
2023/03/08 03:00:20;;;;;;;12.18;6.10;;;;;;;;;;5080244;28;20032;-90
2023/03/08 03:02:46;;;;;;;17.27;7.75;;;;;;;;;;5080301;28;20024;-88
2023/03/08 03:05:12;;;;;;;22.23;8.00;;;;;;;;;;5097687;28;20089;-89
2023/03/08 03:07:39;;;;;;;12.63;7.10;;;;;;;;;;5098150;28;20150;-88
2023/03/08 03:10:05;;;;;;;16.73;7.95;;;;;;;;;;5097976;28;20086;-88
2023/03/08 03:12:31;;;;;;;19.73;9.40;;;;;;;;;;5080027;28;20479;-88
2023/03/08 03:14:57;;;;;;;18.38;9.15;;;;;;;;;;5097618;28;20414;-88
2023/03/08 03:17:23;;;;;;;14.90;8.68;;;;;;;;;;5079718;28;20032;-88
2023/03/08 03:19:49;;;;;;;13.68;7.32;;;;;;;;;;5097843;28;20038;-88
2023/03/08 03:22:16;;;;;;;15.30;8.43;;;;;;;;;;5098113;28;20108;-87
2023/03/08 03:24:42;;;;;;;14.35;7.88;;;;;;;;;;5097878;28;20028;-88
2023/03/08 03:27:08;;;;;;;19.23;8.23;;;;;;;;;;5097896;28;20326;-88
2023/03/08 03:29:34;;;;;;;13.55;7.10;;;;;;;;;;5097741;28;20020;-88
2023/03/08 03:32:00;;;;;;;14.57;7.45;;;;;;;;;;5079721;28;20040;-87
2023/03/08 03:34:26;;;;;;;16.80;8.27;;;;;;;;;;5079794;28;20024;-88
2023/03/08 03:36:52;;;;;;;15.77;8.02;;;;;;;;;;5079862;28;20035;-87
2023/03/08 03:39:32;;;;;;;22.42;10.32;;;;;;;;;;5097745;28;20073;-87
2023/03/08 03:41:59;;;;;;;22.50;9.52;;;;;;;;;;5079895;28;20032;-87
2023/03/08 03:44:25;;;;;;;17.58;8.02;;;;;;;;;;5079465;28;20157;-89
2023/03/08 03:46:51;;;;;;;15.65;8.57;;;;;;;;;;5079765;28;20040;-90
2023/03/08 03:49:17;;;;;;;24.52;10.05;;;;;;;;;;5097651;28;20016;-89
2023/03/08 03:51:43;;;;;;;13.68;7.55;;;;;;;;;;5079723;28;20020;-90
2023/03/08 03:54:09;;;;;;;15.63;8.10;;;;;;;;;;5097760;28;20032;-88
2023/03/08 03:56:39;;;;;;;27.00;10.65;;;;;;;;;;5097854;28;20066;-90
2023/03/08 03:59:05;;;;;;;15.73;8.45;;;;;;;;;;5097880;28;20090;-90
2023/03/08 04:01:31;;;;;;;14.00;7.57;;;;;;;;;;5079465;28;20032;-89
2023/03/08 04:03:58;;;;;;;14.45;7.22;;;;;;;;;;5097257;28;20058;-90
2023/03/08 04:06:28;;;;;;;17.13;7.93;;;;;;;;;;5097371;28;20020;-90
2023/03/08 04:08:57;;;;;;;12.90;7.85;;;;;;;;;;5097964;28;20024;-88
2023/03/08 04:11:25;;;;;;;11.55;6.75;;;;;;;;;;5083047;28;20031;-87
2023/03/08 04:13:51;;;;;;;15.82;7.68;;;;;;;;;;5083008;28;20174;-87
2023/03/08 04:16:20;;;;;;;16.13;7.97;;;;;;;;;;5101294;28;20051;-87
2023/03/08 04:18:47;;;;;;;12.35;7.13;;;;;;;;;;5100915;28;20105;-86
2023/03/08 04:21:13;;;;;;;12.10;6.70;;;;;;;;;;5082691;28;20040;-86
2023/03/08 04:23:39;;;;;;;11.32;6.30;;;;;;;;;;5100740;28;20111;-86
2023/03/08 04:26:05;;;;;;;11.10;6.43;;;;;;;;;;5082539;28;20028;-87
2023/03/08 04:28:32;;;;;;;14.38;7.25;;;;;;;;;;5100733;28;20448;-88
2023/03/08 04:30:59;;;;;;;13.07;6.25;;;;;;;;;;5082954;28;20085;-88
2023/03/08 04:33:25;;;;;;;13.32;7.25;;;;;;;;;;5101017;28;20031;-88
2023/03/08 04:35:51;;;;;;;11.85;6.43;;;;;;;;;;5100487;28;20421;-88
2023/03/08 04:38:18;;;;;;;14.13;6.63;;;;;;;;;;5100520;28;20048;-88
2023/03/08 04:43:35;;;;;;;12.23;6.50;;;;;;;;;;5100597;28;20134;-87
2023/03/08 04:46:01;;;;;;;12.10;5.70;;;;;;;;;;5100150;28;20073;-88
2023/03/08 04:48:27;;;;;;;12.15;5.97;;;;;;;;;;5100529;28;20111;-88
2023/03/08 04:50:58;;;;;;;8.07;4.93;;;;;;;;;;5082597;28;20013;-88
2023/03/08 04:53:24;;;;;;;8.75;4.70;;;;;;;;;;5100555;28;20028;-88
2023/03/08 04:55:50;;;;;;;9.73;5.35;;;;;;;;;;5100410;28;20024;-88
2023/03/08 04:58:17;;;;;;;9.32;5.60;;;;;;;;;;5082716;28;20028;-88
2023/03/08 05:00:44;;;;;;;8.77;5.30;;;;;;;;;;5099949;28;20097;-88
2023/03/08 05:03:12;;;;;;;18.58;6.30;;;;;;;;;;5082293;28;20299;-87
2023/03/08 05:05:38;;;;;;;10.75;5.97;;;;;;;;;;5099797;28;20032;-86
2023/03/08 05:08:04;;;;;;;23.52;14.15;;;;;;;;;;5091806;28;20024;-87
2023/03/08 05:10:33;;;;;;;13.60;7.88;;;;;;;;;;5099367;28;20024;-84
2023/03/08 05:12:59;;;;;;;16.77;9.20;;;;;;;;;;5092081;28;20028;-88
2023/03/08 05:15:25;;;;;;;18.90;9.38;;;;;;;;;;5099429;28;20381;-89
2023/03/08 05:17:51;;;;;;;19.75;9.23;;;;;;;;;;5098954;28;20070;-89
2023/03/08 05:20:17;;;;;;;14.68;7.07;;;;;;;;;;5098466;28;20027;-87
2023/03/08 05:22:44;;;;;;;10.00;4.82;;;;;;;;;;5078220;28;20028;-90
2023/03/08 05:25:10;;;;;;;9.35;4.90;;;;;;;;;;5099908;28;20028;-89
2023/03/08 05:27:36;;;;;;;9.00;4.50;;;;;;;;;;5099599;28;20532;-89
2023/03/08 05:30:06;;;;;;;9.40;4.43;;;;;;;;;;5081814;28;20027;-90
2023/03/08 05:32:32;;;;;;;16.00;6.30;;;;;;;;;;5094217;28;20024;-89
2023/03/08 05:34:58;;;;;;;30.00;12.75;;;;;;;;;;5099595;28;20024;-90
2023/03/08 05:37:24;;;;;;;20.98;9.85;;;;;;;;;;5099555;28;20035;-88
2023/03/08 05:40:21;;;;;;;15.68;7.60;;;;;;;;;;5099552;28;20107;-89
2023/03/08 05:42:47;;;;;;;12.45;5.53;;;;;;;;;;5099259;28;20032;-88
2023/03/08 05:45:13;;;;;;;14.95;6.47;;;;;;;;;;5097594;28;20031;-89
2023/03/08 05:47:39;;;;;;;15.27;6.57;;;;;;;;;;5099352;28;20356;-88
2023/03/08 05:50:06;;;;;;;11.57;6.10;;;;;;;;;;5080845;28;20023;-88
2023/03/08 05:52:32;;;;;;;14.35;7.85;;;;;;;;;;5089438;28;20054;-89
2023/03/08 05:54:58;;;;;;;15.35;6.63;;;;;;;;;;5086902;28;20050;-88
2023/03/08 05:57:24;;;;;;;12.77;7.13;;;;;;;;;;5079801;28;20346;-90
2023/03/08 05:59:50;;;;;;;12.07;7.00;;;;;;;;;;5067218;28;20032;-89
2023/03/08 06:02:16;;;;;;;8.63;4.65;;;;;;;;;;5112880;28;20034;-89
2023/03/08 06:04:42;;;;;;;10.57;5.55;;;;;;;;;;5107993;28;20027;-88
2023/03/08 06:07:08;;;;;;;13.05;7.22;;;;;;;;;;5119363;28;20031;-89
2023/03/08 06:09:34;;;;;;;14.50;7.70;;;;;;;;;;5119070;28;20020;-88
2023/03/08 06:15:04;;;;;;;42.85;13.57;;;;;;;;;;5097894;28;20044;-89
2023/03/08 06:17:30;;;;;;;53.13;14.98;;;;;;;;;;5060729;28;20028;-89
2023/03/08 06:19:56;;;;;;;46.38;16.08;;;;;;;;;;5075337;28;20401;-88
2023/03/08 06:22:22;;;;;;;35.03;14.73;;;;;;;;;;5078301;28;20024;-90
2023/03/08 06:24:48;;;;;;;22.73;10.82;;;;;;;;;;5060632;28;20033;-88
2023/03/08 06:27:15;;;;;;;12.88;7.35;;;;;;;;;;5060356;28;20036;-88
2023/03/08 06:29:41;;;;;;;10.98;6.68;;;;;;;;;;5060385;28;20028;-87
2023/03/08 06:32:07;;;;;;;13.75;8.02;;;;;;;;;;5077399;28;20405;-88
2023/03/08 06:34:33;;;;;;;17.77;8.93;;;;;;;;;;5078033;28;20021;-88
2023/03/08 06:36:59;;;;;;;22.80;9.40;;;;;;;;;;5078013;28;20052;-88
2023/03/08 06:39:29;;;;;;;24.02;11.02;;;;;;;;;;5077964;28;20036;-88
2023/03/08 06:41:55;;;;;;;23.25;10.40;;;;;;;;;;5077994;28;20024;-89
2023/03/08 06:44:22;;;;;;;23.42;9.43;;;;;;;;;;5060242;28;20040;-86
2023/03/08 06:46:48;;;;;;;23.85;11.70;;;;;;;;;;5078141;28;20099;-90
2023/03/08 06:49:14;;;;;;;22.00;11.30;;;;;;;;;;5077760;28;20060;-88
2023/03/08 06:51:40;;;;;;;21.58;11.30;;;;;;;;;;5076237;28;20059;-88
2023/03/08 06:54:06;;;;;;;40.17;16.80;;;;;;;;;;5077575;28;20020;-87
2023/03/08 06:56:32;;;;;;;45.20;18.90;;;;;;;;;;5077700;28;20395;-87
2023/03/08 06:58:58;;;;;;;29.02;15.48;;;;;;;;;;5077908;28;20312;-86
2023/03/08 07:01:24;;;;;;;30.42;16.13;;;;;;;;;;5076834;28;20029;-88
2023/03/08 07:03:51;;;;;;;21.08;11.73;;;;;;;;;;5059939;28;20029;-87
2023/03/08 07:06:17;;;;;;;16.27;9.27;;;;;;;;;;5059608;28;20415;-87
2023/03/08 07:08:44;;;;;;;20.67;13.80;;;;;;;;;;5077550;28;20033;-87
2023/03/08 07:11:10;;;;;;;27.08;12.75;;;;;;;;;;5077430;28;20517;-87
2023/03/08 07:13:36;;;;;;;21.92;13.52;;;;;;;;;;5077700;28;20115;-86
2023/03/08 07:16:10;;;;;;;16.13;9.15;;;;;;;;;;5096486;28;20040;-86
2023/03/08 07:18:36;;;;;;;24.33;11.00;;;;;;;;;;5080027;28;20111;-87
2023/03/08 07:21:02;;;;;;;23.05;11.95;;;;;;;;;;5097821;28;20024;-86
2023/03/08 07:23:28;;;;;;;57.30;22.33;;;;;;;;;;5097298;28;20016;-87
2023/03/08 07:25:55;;;;;;;82.15;27.42;;;;;;;;;;5097239;28;20039;-87
2023/03/08 07:28:21;;;;;;;61.45;22.80;;;;;;;;;;5079985;28;20044;-87
2023/03/08 07:30:47;;;;;;;33.38;15.00;;;;;;;;;;5097863;28;20028;-87
2023/03/08 07:33:14;;;;;;;25.83;12.13;;;;;;;;;;5097620;28;20027;-86
2023/03/08 07:35:40;;;;;;;18.08;8.95;;;;;;;;;;5097569;28;20020;-86
2023/03/08 07:38:06;;;;;;;15.60;8.63;;;;;;;;;;5097659;28;20119;-87
2023/03/08 07:40:32;;;;;;;15.75;8.20;;;;;;;;;;5097662;28;20314;-86
2023/03/08 07:42:59;;;;;;;12.88;6.13;;;;;;;;;;5080126;28;20039;-87
2023/03/08 07:45:25;;;;;;;15.52;7.55;;;;;;;;;;5101522;28;20051;-86
2023/03/08 07:47:51;;;;;;;12.80;7.43;;;;;;;;;;5101481;28;20044;-86
2023/03/08 07:50:18;;;;;;;14.07;6.70;;;;;;;;;;5101265;28;20024;-86
2023/03/08 07:52:44;;;;;;;11.05;6.60;;;;;;;;;;5083487;28;20020;-87
2023/03/08 07:55:10;;;;;;;11.38;6.30;;;;;;;;;;5101224;28;20024;-87
2023/03/08 07:57:37;;;;;;;16.10;7.57;;;;;;;;;;5101581;28;20028;-86
2023/03/08 08:00:06;;;;;;;19.95;9.20;;;;;;;;;;5083471;28;20512;-87
2023/03/08 08:02:36;;;;;;;24.40;10.05;;;;;;;;;;5083127;28;20110;-86
2023/03/08 08:05:03;;;;;;;21.58;9.13;;;;;;;;;;5083262;28;20063;-87
2023/03/08 08:07:29;;;;;;;23.15;9.68;;;;;;;;;;5100975;28;20024;-87
2023/03/08 08:09:55;;;;;;;26.80;9.63;;;;;;;;;;5082964;28;20028;-87
2023/03/08 08:12:22;;;;;;;53.13;18.35;;;;;;;;;;5082694;28;20036;-87
2023/03/08 08:14:51;;;;;;;40.13;14.27;;;;;;;;;;5101065;28;20319;-87
2023/03/08 08:17:18;;;;;;;26.40;10.85;;;;;;;;;;5100740;28;20107;-87
2023/03/08 08:19:44;;;;;;;30.38;13.15;;;;;;;;;;5082256;28;20036;-86
2023/03/08 08:22:10;;;;;;;35.95;14.45;;;;;;;;;;5082801;28;20024;-88
2023/03/08 08:24:36;;;;;;;32.38;13.57;;;;;;;;;;5100882;28;20038;-86
2023/03/08 08:27:03;;;;;;;22.27;8.02;;;;;;;;;;5100635;28;20078;-87
2023/03/08 08:29:29;;;;;;;26.20;11.20;;;;;;;;;;5100610;28;20433;-87
2023/03/08 08:31:56;;;;;;;17.65;7.97;;;;;;;;;;5083155;28;20028;-86
2023/03/08 08:34:22;;;;;;;11.40;6.38;;;;;;;;;;5100573;28;20439;-86
2023/03/08 08:36:49;;;;;;;10.48;5.03;;;;;;;;;;5100504;28;20318;-85
2023/03/08 08:39:15;;;;;;;10.63;5.00;;;;;;;;;;5100104;28;20031;-87
2023/03/08 08:44:59;;;;;;;10.38;5.05;;;;;;;;;;5100410;28;20090;-86
2023/03/08 08:47:25;;;;;;;9.95;5.65;;;;;;;;;;5082338;28;20385;-87
2023/03/08 08:49:51;;;;;;;11.45;6.13;;;;;;;;;;5082455;28;20077;-86
2023/03/08 08:52:18;;;;;;;40.47;22.60;;;;;;;;;;5081962;28;20020;-86
2023/03/08 08:54:44;;;;;;;15.77;8.50;;;;;;;;;;5080198;28;20074;-87
2023/03/08 08:57:10;;;;;;;15.70;7.35;;;;;;;;;;5082197;28;20119;-86
2023/03/08 08:59:36;;;;;;;16.23;8.73;;;;;;;;;;5082593;28;20369;-87
2023/03/08 09:02:02;;;;;;;17.20;9.10;;;;;;;;;;5084026;28;20342;-86
2023/03/08 09:04:28;;;;;;;13.13;7.90;;;;;;;;;;5100775;28;20036;-86
2023/03/08 09:06:54;;;;;;;15.05;7.43;;;;;;;;;;5083363;28;20027;-87
2023/03/08 09:09:20;;;;;;;13.63;7.75;;;;;;;;;;5082155;28;20454;-86
2023/03/08 09:15:05;;;;;;;12.55;6.88;;;;;;;;;;5099571;28;20049;-87
2023/03/08 09:17:32;;;;;;;15.63;9.55;;;;;;;;;;5100113;28;20093;-85
2023/03/08 09:19:58;;;;;;;25.17;12.70;;;;;;;;;;5099381;28;20338;-85
2023/03/08 09:22:26;;;;;;;21.50;12.85;;;;;;;;;;5081725;28;20024;-86
2023/03/08 09:24:52;;;;;;;24.80;12.82;;;;;;;;;;5099851;28;20066;-86
2023/03/08 09:27:18;;;;;;;24.65;12.65;;;;;;;;;;5081651;28;20028;-87
2023/03/08 09:29:44;;;;;;;23.25;12.43;;;;;;;;;;5081627;28;20039;-86
2023/03/08 09:32:10;;;;;;;19.58;11.60;;;;;;;;;;5099677;28;20356;-86
2023/03/08 09:34:37;;;;;;;42.30;18.90;;;;;;;;;;5099804;28;20313;-87
2023/03/08 09:37:04;;;;;;;22.33;12.25;;;;;;;;;;5099437;28;20084;-86
2023/03/08 09:39:30;;;;;;;35.42;14.32;;;;;;;;;;5099481;28;20024;-86
2023/03/08 09:41:58;;;;;;;51.67;17.70;;;;;;;;;;5099332;28;20074;-86
2023/03/08 09:44:48;;;;;;;45.70;17.15;;;;;;;;;;5099442;28;20031;-86
2023/03/08 09:47:14;;;;;;;27.05;12.10;;;;;;;;;;5099181;28;20291;-86
2023/03/08 09:49:41;;;;;;;31.80;14.73;;;;;;;;;;5098956;28;20036;-87
2023/03/08 09:52:14;;;;;;;58.35;19.02;;;;;;;;;;5098866;28;20065;-85
2023/03/08 09:54:41;;;;;;;25.48;11.15;;;;;;;;;;5099016;28;20080;-86
2023/03/08 09:57:12;;;;;;;16.02;8.48;;;;;;;;;;5099103;28;20032;-86
2023/03/08 09:59:45;;;;;;;16.67;9.35;;;;;;;;;;5081316;28;20024;-86
2023/03/08 10:02:25;;;;;;;21.67;10.05;;;;;;;;;;5099121;28;20160;-86
2023/03/08 10:04:51;;;;;;;16.52;8.48;;;;;;;;;;5098698;28;20326;-86
2023/03/08 10:07:20;;;;;;;16.70;8.48;;;;;;;;;;5097617;28;20020;-86
2023/03/08 10:09:50;;;;;;;13.95;8.45;;;;;;;;;;5080778;28;20024;-86
2023/03/08 10:12:21;;;;;;;14.13;8.02;;;;;;;;;;5098705;28;20061;-86
2023/03/08 10:14:54;;;;;;;12.05;8.00;;;;;;;;;;5080483;28;20143;-85
2023/03/08 10:17:21;;;;;;;17.35;8.45;;;;;;;;;;5098599;28;20036;-86
2023/03/08 10:19:50;;;;;;;13.27;8.60;;;;;;;;;;5080670;28;20035;-85
2023/03/08 10:22:26;;;;;;;15.00;7.88;;;;;;;;;;5098719;28;20370;-86
2023/03/08 10:24:59;;;;;;;14.52;8.60;;;;;;;;;;5098340;28;20369;-86
2023/03/08 10:27:27;;;;;;;19.00;9.13;;;;;;;;;;5080542;28;20388;-86
2023/03/08 10:29:55;;;;;;;14.82;7.82;;;;;;;;;;5098251;28;20097;-85
2023/03/08 10:32:21;;;;;;;10.85;7.60;;;;;;;;;;5080384;28;20093;-86
2023/03/08 10:34:47;;;;;;;12.27;8.52;;;;;;;;;;5098297;28;20024;-86
2023/03/08 10:37:14;;;;;;;14.13;8.35;;;;;;;;;;5080083;28;20058;-85
2023/03/08 10:39:53;;;;;;;15.32;8.25;;;;;;;;;;5098443;28;20111;-86
2023/03/08 10:42:25;;;;;;;11.32;7.53;;;;;;;;;;5097919;28;20031;-87
2023/03/08 10:44:56;;;;;;;18.25;9.35;;;;;;;;;;5080272;28;20031;-86
2023/03/08 10:47:24;;;;;;;20.92;9.77;;;;;;;;;;5098000;28;20024;-86
2023/03/08 10:50:06;;;;;;;12.35;8.15;;;;;;;;;;5098230;28;20318;-88
2023/03/08 10:52:32;;;;;;;12.67;8.20;;;;;;;;;;5098128;28;20055;-86
2023/03/08 10:55:01;;;;;;;17.50;8.27;;;;;;;;;;5080323;28;20055;-87
2023/03/08 10:57:28;;;;;;;16.13;8.15;;;;;;;;;;5097961;28;20028;-87
2023/03/08 10:59:54;;;;;;;13.95;8.00;;;;;;;;;;5097870;28;20028;-86
2023/03/08 11:02:21;;;;;;;15.02;7.22;;;;;;;;;;5097828;28;20028;-86
2023/03/08 11:04:58;;;;;;;11.25;6.82;;;;;;;;;;5097791;28;20436;-87
2023/03/08 11:07:31;;;;;;;13.35;6.88;;;;;;;;;;5097839;28;20031;-87
2023/03/08 11:10:09;;;;;;;11.85;7.10;;;;;;;;;;5097801;28;20065;-87
2023/03/08 11:12:35;;;;;;;10.05;6.60;;;;;;;;;;5097953;28;20417;-88
2023/03/08 11:15:01;;;;;;;11.63;6.43;;;;;;;;;;5097749;28;20106;-87
2023/03/08 11:17:34;;;;;;;11.88;6.90;;;;;;;;;;5097657;28;20036;-87
2023/03/08 11:20:09;;;;;;;11.20;6.32;;;;;;;;;;5097603;28;20028;-87
2023/03/08 11:22:51;;;;;;;11.15;6.53;;;;;;;;;;5097557;28;20086;-87
2023/03/08 11:25:22;;;;;;;12.18;7.80;;;;;;;;;;5097696;28;20348;-87
2023/03/08 11:27:58;;;;;;;11.13;6.90;;;;;;;;;;5097679;28;20066;-87
2023/03/08 11:30:30;;;;;;;11.90;6.95;;;;;;;;;;5097653;28;20032;-87
2023/03/08 11:33:17;;;;;;;12.20;6.13;;;;;;;;;;5097727;28;20326;-88
2023/03/08 11:35:43;;;;;;;15.75;6.93;;;;;;;;;;5097507;28;20409;-87
2023/03/08 11:38:09;;;;;;;11.98;7.10;;;;;;;;;;5097738;28;20031;-87
2023/03/08 11:40:35;;;;;;;9.10;6.05;;;;;;;;;;5079689;28;20024;-83
2023/03/08 11:43:04;;;;;;;11.80;7.43;;;;;;;;;;5079542;28;20447;-83
2023/03/08 11:45:35;;;;;;;13.70;7.03;;;;;;;;;;5097235;28;20035;-83
2023/03/08 11:48:14;;;;;;;10.95;6.18;;;;;;;;;;5079457;28;20024;-84
2023/03/08 11:50:47;;;;;;;14.52;7.35;;;;;;;;;;5097151;28;20063;-84
2023/03/08 11:53:13;;;;;;;14.35;7.40;;;;;;;;;;5097324;28;20052;-83
2023/03/08 11:55:45;;;;;;;14.57;7.70;;;;;;;;;;5097160;28;20020;-84
2023/03/08 11:58:19;;;;;;;10.95;6.07;;;;;;;;;;5097172;28;20073;-84
2023/03/08 12:00:46;;;;;;;10.82;5.82;;;;;;;;;;5097388;28;20325;-84
2023/03/08 12:03:17;;;;;;;13.27;7.90;;;;;;;;;;5097098;28;20036;-84
2023/03/08 12:05:52;;;;;;;11.65;6.68;;;;;;;;;;5097019;28;20487;-83
2023/03/08 12:08:23;;;;;;;13.50;6.40;;;;;;;;;;5097107;28;20048;-83
2023/03/08 12:10:49;;;;;;;10.73;6.15;;;;;;;;;;5060861;28;20099;-83
2023/03/08 12:13:21;;;;;;;13.00;5.95;;;;;;;;;;5070779;28;20418;-83
2023/03/08 12:15:47;;;;;;;;;;;;;;;;;;5094154;28;20040;-83
2023/03/08 12:18:32;;;;;;;9.80;5.13;;;;;;;;;;5078758;28;19904;-83
2023/03/08 12:21:17;;;;;;;14.02;8.10;;;;;;;;;;5079029;28;20043;-82
2023/03/08 12:24:02;;;;;;;20.73;8.80;;;;;;;;;;5088767;28;20394;-83
2023/03/08 12:26:31;;;;;;;12.70;7.57;;;;;;;;;;5065709;28;20062;-82
2023/03/08 12:29:02;;;;;;;17.55;9.35;;;;;;;;;;5081089;28;20028;-83
2023/03/08 12:31:30;;;;;;;13.40;7.72;;;;;;;;;;5079395;28;20016;-82
2023/03/08 12:33:57;;;;;;;12.38;7.15;;;;;;;;;;5080033;28;20105;-82
2023/03/08 12:36:42;;;;;;;12.27;7.15;;;;;;;;;;5081990;28;20062;-83
2023/03/08 12:39:22;;;;;;;8.73;5.45;;;;;;;;;;5082364;28;20038;-82
2023/03/08 12:41:56;;;;;;;9.45;6.28;;;;;;;;;;5100215;28;20054;-83
2023/03/08 12:44:25;;;;;;;13.15;8.32;;;;;;;;;;5100222;28;20441;-87
2023/03/08 12:46:51;;;;;;;13.60;6.22;;;;;;;;;;5100376;28;20051;-86
2023/03/08 12:49:19;;;;;;;11.30;6.15;;;;;;;;;;5100071;28;20016;-87
2023/03/08 12:51:55;;;;;;;16.55;7.45;;;;;;;;;;5082655;28;20059;-88
2023/03/08 12:54:22;;;;;;;14.40;7.60;;;;;;;;;;5082500;28;20028;-87
2023/03/08 12:56:52;;;;;;;16.45;8.05;;;;;;;;;;5100126;28;20103;-86
2023/03/08 12:59:20;;;;;;;23.50;10.68;;;;;;;;;;5100287;28;20032;-87
2023/03/08 13:01:46;;;;;;;14.18;8.43;;;;;;;;;;5082314;28;20036;-87
2023/03/08 13:04:32;;;;;;;18.02;7.25;;;;;;;;;;5100002;28;20148;-87
2023/03/08 13:07:07;;;;;;;16.45;9.35;;;;;;;;;;5100283;28;20047;-87
2023/03/08 13:09:45;;;;;;;26.15;9.35;;;;;;;;;;5100243;28;20160;-87
2023/03/08 13:12:14;;;;;;;16.52;8.20;;;;;;;;;;5099818;28;20402;-87
2023/03/08 13:14:58;;;;;;;15.52;7.35;;;;;;;;;;5099848;28;20374;-87
2023/03/08 13:17:27;;;;;;;9.88;6.40;;;;;;;;;;5099894;28;20414;-88
2023/03/08 13:19:54;;;;;;;12.10;6.82;;;;;;;;;;5081990;28;20028;-88
2023/03/08 13:22:43;;;;;;;10.65;6.15;;;;;;;;;;5081910;28;20133;-82
2023/03/08 13:25:27;;;;;;;14.40;7.93;;;;;;;;;;4998381;28;20048;-87
2023/03/08 13:28:20;;;;;;;14.50;7.13;;;;;;;;;;4998422;28;20041;-87
2023/03/08 13:30:50;;;;;;;11.35;7.15;;;;;;;;;;4994872;28;20425;-87
2023/03/08 13:33:23;;;;;;;17.02;9.93;;;;;;;;;;4998402;28;20504;-86
2023/03/08 13:36:02;;;;;;;15.43;8.65;;;;;;;;;;4998085;28;20101;-81
2023/03/08 13:38:31;;;;;;;11.45;6.57;;;;;;;;;;4996517;28;20502;-82
2023/03/08 13:41:15;;;;;;;15.23;7.22;;;;;;;;;;4978648;28;20098;-84
2023/03/08 13:43:41;;;;;;;17.80;6.40;;;;;;;;;;4985117;28;20041;-83
2023/03/08 13:46:10;;;;;;;12.02;6.25;;;;;;;;;;4982766;28;20126;-83
2023/03/08 13:48:37;;;;;;;13.25;5.57;;;;;;;;;;4979665;28;20031;-84
2023/03/08 13:51:06;;;;;;;9.90;5.65;;;;;;;;;;4982304;28;20037;-84
2023/03/08 13:53:34;;;;;;;8.10;5.13;;;;;;;;;;4978206;28;20202;-84
2023/03/08 13:56:01;;;;;;;15.13;5.10;;;;;;;;;;4978206;28;20042;-83
2023/03/08 13:58:34;;;;;;;9.77;5.40;;;;;;;;;;4978062;28;20078;-84
2023/03/08 14:01:03;;;;;;;10.98;5.22;;;;;;;;;;4980447;28;20122;-84
2023/03/08 14:03:30;;;;;;;10.27;5.50;;;;;;;;;;5060046;28;20039;-84
2023/03/08 14:05:56;;;;;;;9.10;4.75;;;;;;;;;;5078123;28;20059;-82
2023/03/08 14:08:24;;;;;;;8.23;4.75;;;;;;;;;;5078439;28;20522;-84
2023/03/08 14:10:56;;;;;;;10.57;6.57;;;;;;;;;;5060643;28;20024;-84
2023/03/08 14:13:25;;;;;;;11.48;6.43;;;;;;;;;;5060757;28;20067;-84
2023/03/08 14:15:56;;;;;;;9.65;6.00;;;;;;;;;;5077789;28;20418;-84
2023/03/08 14:18:24;;;;;;;12.68;7.88;;;;;;;;;;5080537;28;20321;-84
2023/03/08 14:21:04;;;;;;;15.75;7.53;;;;;;;;;;5098159;28;20064;-85
2023/03/08 14:23:30;;;;;;;12.00;7.53;;;;;;;;;;5079914;28;20032;-84
2023/03/08 14:25:59;;;;;;;11.45;6.20;;;;;;;;;;5098155;28;20044;-84
2023/03/08 14:28:39;;;;;;;11.43;5.85;;;;;;;;;;5080003;28;20036;-84
2023/03/08 14:31:24;;;;;;;12.80;8.77;;;;;;;;;;5097965;28;20078;-84
2023/03/08 14:33:57;;;;;;;16.08;8.55;;;;;;;;;;5075672;28;20037;-83
2023/03/08 14:36:23;;;;;;;15.05;7.40;;;;;;;;;;5065703;28;20032;-85
2023/03/08 14:38:50;;;;;;;14.70;9.43;;;;;;;;;;5077879;28;20028;-85
2023/03/08 14:41:16;;;;;;;18.08;10.55;;;;;;;;;;5077753;28;20028;-85
2023/03/08 14:43:48;;;;;;;20.48;10.40;;;;;;;;;;5060191;28;20032;-85
2023/03/08 14:46:17;;;;;;;20.98;11.70;;;;;;;;;;5059835;28;20044;-85
2023/03/08 14:48:43;;;;;;;11.52;5.97;;;;;;;;;;5077695;28;20021;-85
2023/03/08 14:51:18;;;;;;;11.65;5.05;;;;;;;;;;5077659;28;20025;-85
2023/03/08 14:53:55;;;;;;;24.33;10.13;;;;;;;;;;5077043;28;20016;-85
2023/03/08 14:56:21;;;;;;;41.00;16.55;;;;;;;;;;5077322;28;20065;-85
2023/03/08 14:58:49;;;;;;;66.30;20.60;;;;;;;;;;5077088;28;20028;-85
2023/03/08 15:01:35;;;;;;;44.33;15.93;;;;;;;;;;5060549;28;20020;-84
2023/03/08 15:04:02;;;;;;;25.85;12.40;;;;;;;;;;5075895;28;20409;-85
2023/03/08 15:06:30;;;;;;;22.50;11.23;;;;;;;;;;5078143;28;20078;-85
2023/03/08 15:08:56;;;;;;;18.42;9.10;;;;;;;;;;5064627;28;20032;-85